Time;durP1;ratioP1;P1;durP2;ratioP2;P2;SDS_P1;SDS_P2;PMS_P1;PMS_P2;Temp;Humidity;BMP_temperature;BMP_pressure;BME280_temperature;BME280_humidity;BME280_pressure;Samples;Min_cycle;Max_cycle;Signal;HPM_P1;HPM_P2
2024/01/08 00:01:50;;;;;;;15.73;10.50;;;;;;;-144.30;100.00;86307.03;5071323;28;20246;-57
2024/01/08 00:04:18;;;;;;;15.63;9.97;;;;;;;-144.30;100.00;86293.09;5071449;28;20604;-57
2024/01/08 00:06:45;;;;;;;15.20;10.00;;;;;;;-144.30;100.00;86324.94;5072058;28;20694;-59
2024/01/08 00:09:12;;;;;;;13.03;9.90;;;;;;;-144.30;100.00;86299.06;5071673;28;20214;-57
2024/01/08 00:11:39;;;;;;;12.83;10.20;;;;;;;-144.30;100.00;86279.19;5071452;28;20216;-62
2024/01/08 00:14:06;;;;;;;15.57;10.50;;;;;;;-144.30;100.00;86239.44;5071241;28;20655;-62
2024/01/08 00:16:33;;;;;;;17.93;10.00;;;;;;;-144.30;100.00;86273.22;5071329;28;20653;-62
2024/01/08 00:19:00;;;;;;;15.10;10.03;;;;;;;-144.30;100.00;86285.16;5071191;28;20192;-57
2024/01/08 00:21:29;;;;;;;15.30;11.07;;;;;;;-144.30;100.00;86279.19;5071678;28;20574;-57
2024/01/08 00:23:55;;;;;;;14.13;10.00;;;;;;;-144.30;100.00;86271.25;5071240;28;20196;-57
2024/01/08 00:26:24;;;;;;;13.43;10.13;;;;;;;-144.30;100.00;86297.09;5071300;28;20203;-56
2024/01/08 00:28:51;;;;;;;17.60;10.20;;;;;;;-144.30;100.00;86299.06;5071127;28;20239;-58
2024/01/08 00:31:18;;;;;;;14.83;9.73;;;;;;;-144.30;100.00;86291.13;5071127;28;20273;-57
2024/01/08 00:33:45;;;;;;;15.53;10.40;;;;;;;-144.30;100.00;86320.94;5071156;28;20644;-57
2024/01/08 00:36:12;;;;;;;13.10;10.07;;;;;;;-144.30;100.00;86295.09;5071050;28;20196;-56
2024/01/08 00:38:40;;;;;;;15.33;9.93;;;;;;;-144.30;100.00;86261.28;5071368;28;20660;-61
2024/01/08 00:41:07;;;;;;;18.57;10.53;;;;;;;-144.30;100.00;86130.06;5070006;28;20196;-61
2024/01/08 00:43:34;;;;;;;13.00;9.97;;;;;;;-144.30;100.00;86271.25;5070749;28;20560;-58
2024/01/08 00:46:01;;;;;;;15.90;10.43;;;;;;;-144.30;100.00;85925.25;5070591;28;20588;-57
2024/01/08 00:48:27;;;;;;;14.03;9.87;;;;;;;-144.30;100.00;86271.25;5070966;28;20204;-61
2024/01/08 00:50:54;;;;;;;13.83;9.57;;;;;;;-144.30;100.00;86322.94;5070809;28;20703;-60
2024/01/08 00:53:21;;;;;;;12.60;9.40;;;;;;;-144.30;100.00;86291.13;5070793;28;20192;-57
2024/01/08 00:55:49;;;;;;;11.07;9.67;;;;;;;-144.30;100.00;86287.16;5070780;28;20196;-57
2024/01/08 00:58:16;;;;;;;13.53;9.87;;;;;;;-144.30;100.00;86303.06;5070455;28;20211;-56
2024/01/08 01:00:43;;;;;;;15.37;10.17;;;;;;;-144.30;100.00;86287.16;5070496;28;20716;-56
2024/01/08 01:03:11;;;;;;;16.83;10.13;;;;;;;-144.30;100.00;86307.03;5070238;28;20210;-61
2024/01/08 01:05:38;;;;;;;14.17;9.73;;;;;;;-144.30;100.00;86263.28;5070809;28;20202;-58
2024/01/08 01:08:05;;;;;;;16.70;10.40;;;;;;;-144.30;100.00;86265.28;5070385;28;20196;-60
2024/01/08 01:10:32;;;;;;;11.37;9.37;;;;;;;-144.30;100.00;86291.13;5070252;28;20207;-60
2024/01/08 01:13:00;;;;;;;12.10;9.87;;;;;;;-144.30;100.00;86263.28;5070057;28;20242;-61
2024/01/08 01:15:27;;;;;;;13.83;10.43;;;;;;;-144.30;100.00;86305.03;5070343;28;20235;-60
2024/01/08 01:17:54;;;;;;;12.03;10.13;;;;;;;-144.30;100.00;86277.19;5070464;28;20204;-59
2024/01/08 01:20:22;;;;;;;14.97;10.13;;;;;;;-144.30;100.00;86301.06;5070214;28;20218;-60
2024/01/08 01:22:49;;;;;;;15.73;9.30;;;;;;;-144.30;100.00;86275.22;5070338;28;20218;-59
2024/01/08 01:25:16;;;;;;;13.90;9.83;;;;;;;-144.30;100.00;86283.16;5070110;28;20251;-57
2024/01/08 01:27:43;;;;;;;12.87;9.27;;;;;;;-144.30;100.00;86285.16;5070102;28;20234;-56
2024/01/08 01:30:12;;;;;;;13.20;9.97;;;;;;;-144.30;100.00;86287.16;5069919;28;20203;-59
2024/01/08 01:32:39;;;;;;;10.97;9.43;;;;;;;-144.30;100.00;86249.38;5070027;28;20310;-60
2024/01/08 01:35:07;;;;;;;12.73;9.63;;;;;;;-144.30;100.00;86301.06;5069779;28;20249;-57
2024/01/08 01:37:34;;;;;;;13.80;9.23;;;;;;;-144.30;100.00;86289.13;5069832;28;20196;-61
2024/01/08 01:40:00;;;;;;;14.17;9.27;;;;;;;-144.30;100.00;86287.16;5069757;28;20196;-60
2024/01/08 01:42:27;;;;;;;14.33;9.97;;;;;;;-144.30;100.00;86326.91;5069856;28;20215;-60
2024/01/08 01:44:54;;;;;;;12.43;9.27;;;;;;;-144.30;100.00;86307.03;5069797;28;20196;-56
2024/01/08 01:47:23;;;;;;;14.17;9.70;;;;;;;-144.30;100.00;86227.50;5069966;28;20214;-60
2024/01/08 01:49:51;;;;;;;13.80;10.03;;;;;;;-144.30;100.00;86251.34;5070021;28;20220;-56
2024/01/08 01:52:18;;;;;;;14.40;10.70;;;;;;;-144.30;100.00;86295.09;5069884;28;20288;-59
2024/01/08 01:54:45;;;;;;;16.27;11.13;;;;;;;-144.30;100.00;86303.06;5069970;28;20302;-61
2024/01/08 01:57:12;;;;;;;13.30;10.33;;;;;;;-144.30;100.00;86281.19;5069613;28;20196;-60
2024/01/08 01:59:39;;;;;;;13.03;10.20;;;;;;;-144.30;100.00;86299.06;5070012;28;20698;-58
2024/01/08 02:02:07;;;;;;;15.77;10.53;;;;;;;-144.30;100.00;86313.00;5069344;28;20235;-57
2024/01/08 02:04:37;;;;;;;17.77;9.90;;;;;;;-144.30;100.00;86330.88;5069791;28;20616;-57
2024/01/08 02:07:05;;;;;;;16.10;9.53;;;;;;;-144.30;100.00;86255.34;5069418;28;20196;-56
2024/01/08 02:09:33;;;;;;;12.13;10.13;;;;;;;-144.30;100.00;86314.97;5069787;28;20196;-58
2024/01/08 02:11:59;;;;;;;12.70;9.97;;;;;;;-144.30;100.00;86289.13;5069651;28;20699;-56
2024/01/08 02:14:27;;;;;;;12.70;10.10;;;;;;;-144.30;100.00;86318.97;5069636;28;20690;-60
2024/01/08 02:16:54;;;;;;;14.23;10.20;;;;;;;-144.30;100.00;86227.50;5069830;28;20584;-60
2024/01/08 02:19:20;;;;;;;14.73;10.03;;;;;;;-144.30;100.00;86267.25;5069629;28;20196;-57
2024/01/08 02:21:49;;;;;;;13.20;9.80;;;;;;;-144.30;100.00;86287.16;5070025;28;20202;-60
2024/01/08 02:24:18;;;;;;;13.13;9.73;;;;;;;-144.30;100.00;86277.19;5069202;28;20203;-58
2024/01/08 02:26:44;;;;;;;15.23;10.20;;;;;;;-144.30;100.00;86318.97;5069329;28;20200;-57
2024/01/08 02:29:11;;;;;;;16.93;11.10;;;;;;;-144.30;100.00;86336.84;5069251;28;20196;-57
2024/01/08 02:31:40;;;;;;;12.77;10.83;;;;;;;-144.30;100.00;86303.06;5069352;28;20234;-56
2024/01/08 02:34:06;;;;;;;12.20;10.80;;;;;;;-144.30;100.00;86275.22;5069187;28;20596;-57
2024/01/08 02:36:34;;;;;;;13.07;10.47;;;;;;;-144.30;100.00;86311.00;5069239;28;20202;-57
2024/01/08 02:39:00;;;;;;;13.07;10.10;;;;;;;-144.30;100.00;86851.91;5069315;28;20203;-59
2024/01/08 02:41:29;;;;;;;16.40;10.23;;;;;;;-144.30;100.00;86330.88;5069471;28;20196;-60
2024/01/08 02:43:55;;;;;;;13.63;10.77;;;;;;;-144.30;100.00;86275.22;5069364;28;20210;-57
2024/01/08 02:46:22;;;;;;;12.47;10.23;;;;;;;-144.30;100.00;86322.94;5069382;28;20200;-58
2024/01/08 02:48:49;;;;;;;14.17;9.97;;;;;;;-144.30;100.00;86301.06;5069084;28;20283;-57
2024/01/08 02:51:16;;;;;;;12.53;9.90;;;;;;;-144.30;100.00;86277.19;5069300;28;20202;-58
2024/01/08 02:53:43;;;;;;;13.37;10.17;;;;;;;-144.30;100.00;86283.16;5069325;28;20200;-59
2024/01/08 02:56:19;;;;;;;14.97;10.43;;;;;;;-144.30;100.00;86299.06;5068940;28;20200;-59
2024/01/08 02:58:48;;;;;;;13.13;9.87;;;;;;;-144.30;100.00;86342.81;5069374;28;20753;-59
2024/01/08 03:01:15;;;;;;;9.77;8.77;;;;;;;-144.30;100.00;86318.97;5068752;28;20708;-58
2024/01/08 03:03:42;;;;;;;11.93;9.63;;;;;;;-144.30;100.00;86291.13;5070441;28;20200;-58
2024/01/08 03:06:09;;;;;;;11.40;9.50;;;;;;;-144.30;100.00;86267.25;5072582;28;20310;-58
2024/01/08 03:08:36;;;;;;;11.43;10.27;;;;;;;-144.30;100.00;86275.22;5072690;28;20601;-58
2024/01/08 03:11:03;;;;;;;11.27;10.00;;;;;;;-144.30;100.00;86285.16;5072660;28;20593;-60
2024/01/08 03:13:30;;;;;;;13.20;9.67;;;;;;;-144.30;100.00;86311.00;5072625;28;20274;-57
2024/01/08 03:15:58;;;;;;;9.57;8.67;;;;;;;-144.30;100.00;86279.19;5072514;28;20196;-57
2024/01/08 03:18:25;;;;;;;10.50;9.47;;;;;;;-144.30;100.00;86303.06;5072673;28;20200;-57
2024/01/08 03:20:52;;;;;;;12.07;9.67;;;;;;;-144.30;100.00;86305.03;5072682;28;20226;-57
2024/01/08 03:23:19;;;;;;;10.63;8.60;;;;;;;-144.30;100.00;86305.03;5072369;28;20567;-56
2024/01/08 03:25:46;;;;;;;10.90;9.23;;;;;;;-144.30;100.00;86291.13;5072287;28;20222;-60
2024/01/08 03:28:13;;;;;;;10.77;8.73;;;;;;;-144.30;100.00;86263.28;5072118;28;20238;-60
2024/01/08 03:30:40;;;;;;;14.77;9.10;;;;;;;-144.30;100.00;86275.22;5072484;28;20192;-59
2024/01/08 03:33:09;;;;;;;9.30;8.30;;;;;;;-144.30;100.00;86295.09;5072281;28;20230;-59
2024/01/08 03:35:36;;;;;;;11.60;9.23;;;;;;;-144.30;100.00;86281.19;5072151;28;20200;-60
2024/01/08 03:38:03;;;;;;;10.63;8.37;;;;;;;-144.30;100.00;86271.25;5072123;28;20200;-60
2024/01/08 03:40:29;;;;;;;9.43;8.43;;;;;;;-144.30;100.00;86257.31;5072196;28;20227;-60
2024/01/08 03:42:56;;;;;;;9.20;8.23;;;;;;;-144.30;100.00;86291.13;5072071;28;20192;-60
2024/01/08 03:45:23;;;;;;;11.57;8.43;;;;;;;-144.30;100.00;86283.16;5071765;28;20196;-60
2024/01/08 03:47:50;;;;;;;12.93;8.27;;;;;;;-144.30;100.00;86309.03;5072053;28;20192;-59
2024/01/08 03:50:18;;;;;;;10.73;8.57;;;;;;;-144.30;100.00;86263.28;5071825;28;20204;-60
2024/01/08 03:52:45;;;;;;;8.87;7.97;;;;;;;-144.30;100.00;86299.06;5071761;28;20307;-60
2024/01/08 03:55:12;;;;;;;10.17;7.80;;;;;;;-144.30;100.00;86279.19;5071767;28;20200;-60
2024/01/08 03:57:39;;;;;;;9.80;7.60;;;;;;;-144.30;100.00;86279.19;5071615;28;20204;-61
2024/01/08 04:00:07;;;;;;;8.50;7.67;;;;;;;-144.30;100.00;86287.16;5071319;28;20204;-61
2024/01/08 04:02:34;;;;;;;7.83;6.93;;;;;;;-144.30;100.00;86271.25;5071140;28;20238;-60
2024/01/08 04:05:02;;;;;;;9.23;7.23;;;;;;;-144.30;100.00;86289.13;5055490;28;20200;-58
2024/01/08 04:07:31;;;;;;;8.13;6.70;;;;;;;-144.30;100.00;86265.28;5051500;28;20756;-58
2024/01/08 04:09:58;;;;;;;6.20;5.60;;;;;;;-144.30;100.00;86279.19;5051604;28;20657;-57
2024/01/08 04:12:24;;;;;;;4.93;4.37;;;;;;;-144.30;100.00;86318.97;5051840;28;20615;-57
2024/01/08 04:14:51;;;;;;;4.80;4.30;;;;;;;-144.30;100.00;86295.09;5050517;28;20905;-58
2024/01/08 04:17:18;;;;;;;4.80;3.30;;;;;;;-144.30;100.00;86279.19;5051479;28;20577;-59
2024/01/08 04:19:45;;;;;;;3.47;2.93;;;;;;;-144.30;100.00;86354.75;5051522;28;20544;-58
2024/01/08 04:22:12;;;;;;;3.20;2.90;;;;;;;-144.30;100.00;86303.06;5052393;28;20573;-57
2024/01/08 04:24:40;;;;;;;4.17;3.07;;;;;;;-144.30;100.00;86273.22;5070381;28;20222;-58
2024/01/08 04:27:07;;;;;;;3.07;2.77;;;;;;;-144.30;100.00;86318.97;5070466;28;20674;-58
2024/01/08 04:29:34;;;;;;;4.07;2.87;;;;;;;-144.30;100.00;86316.97;5070714;28;20196;-60
2024/01/08 04:32:01;;;;;;;5.73;3.00;;;;;;;-144.30;100.00;86295.09;5070846;28;20726;-59
2024/01/08 04:34:28;;;;;;;5.53;3.17;;;;;;;-144.30;100.00;86344.81;5060842;28;20201;-60
2024/01/08 04:36:55;;;;;;;3.40;3.10;;;;;;;-144.30;100.00;86301.06;5059203;28;20289;-60
2024/01/08 04:39:22;;;;;;;5.57;3.80;;;;;;;-144.30;100.00;86352.75;5070297;28;20283;-59
2024/01/08 04:41:50;;;;;;;3.70;3.40;;;;;;;-144.30;100.00;86318.97;5070446;28;20227;-57
2024/01/08 04:44:17;;;;;;;3.43;2.80;;;;;;;-144.30;100.00;86320.94;5070182;28;20192;-57
2024/01/08 04:46:44;;;;;;;4.37;2.73;;;;;;;-144.30;100.00;86326.91;5070190;28;20533;-58
2024/01/08 04:49:11;;;;;;;2.53;2.33;;;;;;;-144.30;100.00;86197.66;5070106;28;20227;-59
2024/01/08 04:51:38;;;;;;;4.00;2.40;;;;;;;-144.30;100.00;86318.97;5068178;28;20188;-58
2024/01/08 04:54:06;;;;;;;2.33;2.17;;;;;;;-144.30;100.00;86370.66;5070444;28;20222;-58
2024/01/08 04:56:33;;;;;;;2.47;2.27;;;;;;;-144.30;100.00;86316.97;5070493;28;20196;-60
2024/01/08 04:59:01;;;;;;;2.43;1.93;;;;;;;-144.30;100.00;86314.97;5070379;28;20191;-60
2024/01/08 05:01:28;;;;;;;2.93;2.30;;;;;;;-144.30;100.00;86326.91;5067359;28;20709;-61
2024/01/08 05:03:55;;;;;;;2.87;2.10;;;;;;;-144.30;100.00;86297.09;5050389;28;20288;-61
2024/01/08 05:06:22;;;;;;;4.93;1.97;;;;;;;-144.30;100.00;86299.06;5050112;28;20352;-58
2024/01/08 05:08:49;;;;;;;1.73;1.60;;;;;;;-144.30;100.00;86318.97;5050461;28;20200;-60
2024/01/08 05:11:15;;;;;;;1.80;1.70;;;;;;;-144.30;100.00;86313.00;5050428;28;20228;-60
2024/01/08 05:13:42;;;;;;;2.00;1.90;;;;;;;-144.30;100.00;86342.81;5050376;28;20235;-60
2024/01/08 05:16:10;;;;;;;4.53;1.80;;;;;;;-144.30;100.00;86330.88;5050045;28;20584;-59
2024/01/08 05:18:37;;;;;;;2.87;2.67;;;;;;;-144.30;100.00;86342.81;5050028;28;20288;-59
2024/01/08 05:21:05;;;;;;;9.97;4.40;;;;;;;-144.30;100.00;86320.94;5050233;28;20599;-59
2024/01/08 05:23:33;;;;;;;3.20;2.33;;;;;;;-144.30;100.00;86330.88;5054429;28;20271;-60
2024/01/08 05:25:59;;;;;;;3.30;2.63;;;;;;;-144.30;100.00;86314.97;5069216;28;20204;-60
2024/01/08 05:28:27;;;;;;;2.50;2.27;;;;;;;-144.30;100.00;86340.84;5068652;28;20215;-60
2024/01/08 05:30:54;;;;;;;3.43;2.10;;;;;;;-144.30;100.00;86346.81;5070065;28;20254;-61
2024/01/08 05:33:23;;;;;;;4.40;2.40;;;;;;;-144.30;100.00;86362.72;5069511;28;20342;-61
2024/01/08 05:35:50;;;;;;;3.10;1.73;;;;;;;-144.30;100.00;86299.06;5070013;28;20206;-61
2024/01/08 05:38:17;;;;;;;2.10;2.00;;;;;;;-144.30;100.00;86328.91;5070040;28;20200;-61
2024/01/08 05:40:43;;;;;;;2.20;2.00;;;;;;;-144.30;100.00;86368.66;5070160;28;20575;-61
2024/01/08 05:43:10;;;;;;;2.47;2.27;;;;;;;-144.30;100.00;86358.72;5069897;28;20607;-61
2024/01/08 05:45:37;;;;;;;3.47;2.20;;;;;;;-144.30;100.00;86311.00;5069821;28;20199;-57
2024/01/08 05:48:05;;;;;;;3.33;2.10;;;;;;;-144.30;100.00;86348.78;5069900;28;20200;-59
2024/01/08 05:50:33;;;;;;;5.37;2.43;;;;;;;-144.30;100.00;86338.84;5070267;28;20196;-58
2024/01/08 05:53:00;;;;;;;2.63;2.07;;;;;;;-144.30;100.00;86362.72;5069669;28;20216;-58
2024/01/08 05:55:27;;;;;;;2.30;1.83;;;;;;;-144.30;100.00;86100.25;5069828;28;20210;-59
2024/01/08 05:57:54;;;;;;;2.20;2.00;;;;;;;-144.30;100.00;86378.63;5069867;28;20203;-59
2024/01/08 06:00:22;;;;;;;2.83;2.00;;;;;;;-144.30;100.00;86390.53;5069370;28;20196;-59
2024/01/08 06:02:48;;;;;;;1.93;1.77;;;;;;;-144.30;100.00;86406.44;5069661;28;20196;-59
2024/01/08 06:05:15;;;;;;;2.50;1.90;;;;;;;-144.30;100.00;86374.63;5069869;28;20196;-59
2024/01/08 06:07:44;;;;;;;2.57;1.80;;;;;;;-144.30;100.00;86418.38;5069584;28;20235;-59
2024/01/08 06:10:10;;;;;;;1.80;1.70;;;;;;;-144.30;100.00;86394.53;5069637;28;20236;-58
2024/01/08 06:12:37;;;;;;;3.67;1.80;;;;;;;-144.30;100.00;86255.34;5069857;28;20219;-59
2024/01/08 06:15:06;;;;;;;3.47;1.60;;;;;;;-144.30;100.00;86398.50;5069607;28;20196;-59
2024/01/08 06:17:33;;;;;;;1.60;1.50;;;;;;;-144.30;100.00;86404.47;5069530;28;20204;-58
2024/01/08 06:19:59;;;;;;;3.87;1.70;;;;;;;-144.30;100.00;86394.53;5069517;28;20202;-59
2024/01/08 06:22:27;;;;;;;2.10;1.90;;;;;;;-144.30;100.00;86374.63;5069406;28;20196;-58
2024/01/08 06:24:55;;;;;;;3.50;1.90;;;;;;;-144.30;100.00;86396.50;5069489;28;20265;-59
2024/01/08 06:27:22;;;;;;;4.20;1.90;;;;;;;-144.30;100.00;86408.44;5069335;28;20204;-58
2024/01/08 06:29:49;;;;;;;3.13;1.40;;;;;;;-144.30;100.00;86410.44;5069433;28;20200;-59
2024/01/08 06:32:16;;;;;;;2.30;1.90;;;;;;;-144.30;100.00;86412.41;5069575;28;20234;-59
2024/01/08 06:34:43;;;;;;;1.97;1.67;;;;;;;-144.30;100.00;86322.94;5069620;28;20219;-59
2024/01/08 06:37:09;;;;;;;3.33;1.80;;;;;;;-144.30;100.00;86378.63;5069566;28;20585;-60
2024/01/08 06:39:38;;;;;;;1.50;1.40;;;;;;;-144.30;100.00;86336.84;5072484;28;20206;-58
2024/01/08 06:42:06;;;;;;;2.03;1.67;;;;;;;-144.30;100.00;86277.19;5073096;28;20235;-58
2024/01/08 06:44:33;;;;;;;2.73;1.57;;;;;;;-144.30;100.00;86388.56;5073193;28;20196;-59
2024/01/08 06:47:00;;;;;;;3.97;1.70;;;;;;;-144.30;100.00;86384.59;5073140;28;20199;-59
2024/01/08 06:49:27;;;;;;;1.63;1.53;;;;;;;-144.30;100.00;86362.72;5073258;28;20196;-60
2024/01/08 06:51:54;;;;;;;2.93;2.10;;;;;;;-144.30;100.00;86382.59;5072951;28;20196;-59
2024/01/08 06:54:21;;;;;;;2.10;1.87;;;;;;;-144.30;100.00;86426.34;5072572;28;20223;-60
2024/01/08 06:56:48;;;;;;;2.67;1.87;;;;;;;-144.30;100.00;86434.28;5072595;28;20208;-58
2024/01/08 06:59:16;;;;;;;2.80;2.30;;;;;;;-144.30;100.00;86422.38;5072551;28;20196;-59
2024/01/08 07:01:43;;;;;;;2.83;2.53;;;;;;;-144.30;100.00;86384.59;5072643;28;20231;-59
2024/01/08 07:04:10;;;;;;;2.33;2.13;;;;;;;-144.30;100.00;86406.44;5072701;28;20196;-59
2024/01/08 07:06:37;;;;;;;4.27;2.40;;;;;;;-144.30;100.00;86380.59;5072678;28;20200;-59
2024/01/08 07:09:04;;;;;;;2.80;2.30;;;;;;;-144.30;100.00;86408.44;5072528;28;20196;-58
2024/01/08 07:11:31;;;;;;;3.47;2.70;;;;;;;-144.30;100.00;86430.31;5072909;28;20282;-58
2024/01/08 07:13:58;;;;;;;3.17;2.87;;;;;;;-144.30;100.00;86422.38;5072739;28;20231;-58
2024/01/08 07:16:27;;;;;;;4.20;3.77;;;;;;;-144.30;100.00;86440.25;5072547;28;20207;-57
2024/01/08 07:18:54;;;;;;;2.90;2.70;;;;;;;-144.30;100.00;86398.50;5072575;28;20196;-58
2024/01/08 07:21:22;;;;;;;3.20;2.90;;;;;;;-144.30;100.00;86406.44;5072861;28;20202;-58
2024/01/08 07:23:50;;;;;;;3.00;2.70;;;;;;;-144.30;100.00;86410.44;5072313;28;20194;-58
2024/01/08 07:26:17;;;;;;;3.50;2.93;;;;;;;-144.30;100.00;86374.63;5072587;28;20683;-59
2024/01/08 07:28:44;;;;;;;3.53;3.00;;;;;;;-144.30;100.00;86386.56;5072537;28;20203;-57
2024/01/08 07:31:12;;;;;;;4.63;3.20;;;;;;;-144.30;100.00;86259.31;5072427;28;20196;-57
2024/01/08 07:33:41;;;;;;;3.60;3.20;;;;;;;-144.30;100.00;86376.63;5072412;28;20246;-58
2024/01/08 07:36:09;;;;;;;3.30;2.90;;;;;;;-144.30;100.00;86358.72;5072209;28;20196;-57
2024/01/08 07:38:36;;;;;;;4.07;3.50;;;;;;;-144.30;100.00;86430.31;5066275;28;20596;-58
2024/01/08 07:41:03;;;;;;;6.37;3.10;;;;;;;-144.30;100.00;86376.63;5061512;28;20640;-57
2024/01/08 07:43:30;;;;;;;3.70;3.40;;;;;;;-144.30;100.00;86404.47;5057847;28;20667;-58
2024/01/08 07:45:57;;;;;;;7.47;3.83;;;;;;;-144.30;100.00;86251.34;5063069;28;20231;-58
2024/01/08 07:48:24;;;;;;;5.53;4.00;;;;;;;-144.30;100.00;86406.44;5071560;28;20696;-58
2024/01/08 07:50:52;;;;;;;4.83;4.43;;;;;;;-144.30;100.00;86394.53;5069285;28;20202;-58
2024/01/08 07:53:19;;;;;;;4.00;3.70;;;;;;;-144.30;100.00;86410.44;5061294;28;20714;-57
2024/01/08 07:55:46;;;;;;;4.27;3.87;;;;;;;-144.30;100.00;86352.75;5065927;28;20565;-61
2024/01/08 07:58:14;;;;;;;7.00;4.20;;;;;;;-144.30;100.00;86392.53;5051719;28;20641;-59
2024/01/08 08:00:41;;;;;;;10.67;3.87;;;;;;;-144.30;100.00;86398.50;5051689;28;20240;-59
2024/01/08 08:03:08;;;;;;;4.13;3.30;;;;;;;-144.30;100.00;86386.56;5051712;28;20197;-58
2024/01/08 08:05:35;;;;;;;5.83;3.20;;;;;;;-144.30;100.00;86386.56;5051270;28;20228;-58
2024/01/08 08:08:04;;;;;;;4.80;3.10;;;;;;;-144.30;100.00;86426.34;5050853;28;20196;-59
2024/01/08 08:10:31;;;;;;;3.07;2.77;;;;;;;-144.30;100.00;86436.28;5051424;28;20303;-59
2024/01/08 08:12:58;;;;;;;3.30;2.97;;;;;;;-144.30;100.00;86418.38;5051351;28;20204;-58
2024/01/08 08:15:25;;;;;;;7.07;3.80;;;;;;;-144.30;100.00;86291.13;5051193;28;20201;-64
2024/01/08 08:17:52;;;;;;;3.20;2.90;;;;;;;-144.30;100.00;86420.38;5051298;28;20612;-65
2024/01/08 08:20:19;;;;;;;5.00;3.43;;;;;;;-144.30;100.00;86398.50;5051177;28;20319;-63
2024/01/08 08:22:46;;;;;;;3.70;2.90;;;;;;;-144.30;100.00;87277.53;5056386;28;20683;-63
2024/01/08 08:25:14;;;;;;;2.73;2.50;;;;;;;-144.30;100.00;86382.59;5071137;28;20664;-64
2024/01/08 08:27:41;;;;;;;3.23;2.93;;;;;;;-144.30;100.00;86398.50;5071732;28;20196;-62
2024/01/08 08:30:12;;;;;;;3.30;2.80;;;;;;;-144.30;100.00;86362.72;5071251;28;20293;-64
2024/01/08 08:32:40;;;;;;;3.33;3.03;;;;;;;-144.30;100.00;86364.69;5061941;28;20200;-59
2024/01/08 08:35:08;;;;;;;4.00;3.60;;;;;;;-144.30;100.00;86432.31;5051032;28;20701;-59
2024/01/08 08:37:35;;;;;;;4.60;3.73;;;;;;;-144.30;100.00;86414.41;5050442;28;20692;-59
2024/01/08 08:40:02;;;;;;;5.03;4.27;;;;;;;-144.30;100.00;86362.72;5050905;28;20283;-58
2024/01/08 08:42:30;;;;;;;6.97;4.37;;;;;;;-144.30;100.00;86374.63;5050729;28;20197;-58
2024/01/08 08:44:57;;;;;;;6.60;4.13;;;;;;;-144.30;100.00;86440.25;5050828;28;20590;-64
2024/01/08 08:47:24;;;;;;;4.43;3.20;;;;;;;-144.30;100.00;86368.66;5050430;28;20197;-60
2024/01/08 08:49:51;;;;;;;4.40;3.50;;;;;;;-144.30;100.00;86378.63;5050846;28;20223;-58
2024/01/08 08:52:17;;;;;;;7.23;3.87;;;;;;;-144.30;100.00;86414.41;5051929;28;20200;-59
2024/01/08 08:54:44;;;;;;;6.33;3.80;;;;;;;-144.30;100.00;86346.81;5070586;28;20220;-59
2024/01/08 08:57:11;;;;;;;4.03;3.57;;;;;;;-144.30;100.00;86354.75;5070351;28;20206;-59
2024/01/08 08:59:39;;;;;;;5.07;3.87;;;;;;;-144.30;100.00;86398.50;5071091;28;20199;-59
2024/01/08 09:02:06;;;;;;;6.70;3.67;;;;;;;-144.30;100.00;86376.63;5069784;28;20235;-59
2024/01/08 09:04:34;;;;;;;4.07;3.50;;;;;;;-144.30;100.00;86432.31;5070232;28;20192;-57
2024/01/08 09:07:01;;;;;;;5.43;3.63;;;;;;;-144.30;100.00;86408.44;5069881;28;20203;-59
2024/01/08 09:09:27;;;;;;;5.10;3.73;;;;;;;-144.30;100.00;86400.50;5070163;28;20195;-59
2024/01/08 09:11:55;;;;;;;4.73;4.07;;;;;;;-144.30;100.00;86414.41;5070241;28;20207;-58
2024/01/08 09:14:22;;;;;;;4.80;3.47;;;;;;;-144.30;100.00;86342.81;5070104;28;20226;-59
2024/01/08 09:16:50;;;;;;;4.70;3.67;;;;;;;-144.30;100.00;86392.53;5070374;28;20203;-57
2024/01/08 09:19:17;;;;;;;6.40;3.60;;;;;;;-144.30;100.00;86400.50;5082731;28;20199;-58
2024/01/08 09:21:46;;;;;;;4.77;4.03;;;;;;;-144.30;100.00;87480.44;5090756;28;20261;-59
2024/01/08 09:24:13;;;;;;;5.83;4.13;;;;;;;-144.30;100.00;86402.47;5090624;28;20206;-58
2024/01/08 09:26:41;;;;;;;7.17;3.90;;;;;;;-144.30;100.00;86406.44;5090397;28;20195;-65
2024/01/08 09:29:09;;;;;;;6.07;4.00;;;;;;;-144.30;100.00;86396.50;5090545;28;20198;-65
2024/01/08 09:31:36;;;;;;;3.57;3.27;;;;;;;-144.30;100.00;86378.63;5079599;28;20210;-65
2024/01/08 09:34:05;;;;;;;4.40;3.50;;;;;;;-144.30;100.00;86380.59;5090368;28;20219;-65
2024/01/08 09:36:32;;;;;;;3.60;3.30;;;;;;;-144.30;100.00;86404.47;5090525;28;20585;-65
2024/01/08 09:38:59;;;;;;;4.27;3.87;;;;;;;-144.30;100.00;86430.31;5090181;28;20195;-57
2024/01/08 09:41:26;;;;;;;6.10;4.37;;;;;;;-144.30;100.00;86410.44;5089776;28;20195;-58
2024/01/08 09:43:53;;;;;;;6.00;4.97;;;;;;;-144.30;100.00;86384.59;5090438;28;20207;-58
2024/01/08 09:46:26;;;;;;;8.70;5.57;;;;;;;-144.30;100.00;86380.59;5090314;28;20199;-65
2024/01/08 09:48:54;;;;;;;6.07;5.00;;;;;;;-144.30;100.00;86374.63;5090152;28;20214;-59
2024/01/08 09:51:23;;;;;;;8.30;5.57;;;;;;;-144.30;100.00;86416.41;5090044;28;20202;-58
2024/01/08 09:53:52;;;;;;;7.40;5.53;;;;;;;-144.30;100.00;86416.41;5089908;28;20276;-58
2024/01/08 09:56:20;;;;;;;6.53;4.60;;;;;;;-144.30;100.00;86380.59;5090213;28;20648;-57
2024/01/08 09:58:47;;;;;;;5.33;4.70;;;;;;;-144.30;100.00;86412.41;5089851;28;20192;-57
2024/01/08 10:01:14;;;;;;;4.70;4.30;;;;;;;-144.30;100.00;86442.25;5089495;28;20235;-66
2024/01/08 10:03:41;;;;;;;3.87;3.30;;;;;;;-144.30;100.00;86378.63;5089874;28;20298;-65
2024/01/08 10:06:09;;;;;;;5.73;3.70;;;;;;;-144.30;100.00;86376.63;5089793;28;20206;-66
2024/01/08 10:08:37;;;;;;;3.50;3.20;;;;;;;-144.30;100.00;86360.72;5089718;28;20195;-66
2024/01/08 10:11:06;;;;;;;3.83;3.27;;;;;;;-144.30;100.00;86364.69;5089927;28;20684;-66
2024/01/08 10:13:33;;;;;;;5.00;3.27;;;;;;;-144.30;100.00;86416.41;5091014;28;20589;-58
2024/01/08 10:16:01;;;;;;;3.00;2.80;;;;;;;-144.30;100.00;86392.53;5094133;28;20291;-58
2024/01/08 10:18:29;;;;;;;4.00;3.40;;;;;;;-144.30;100.00;86382.59;5094106;28;20199;-58
2024/01/08 10:21:10;;;;;;;3.83;3.50;;;;;;;-144.30;100.00;86390.53;5093869;28;20286;-59
2024/01/08 10:23:38;;;;;;;5.27;4.47;;;;;;;-144.30;100.00;86342.81;5094232;28;20585;-66
2024/01/08 10:26:06;;;;;;;5.93;4.40;;;;;;;-144.30;100.00;86356.75;5094212;28;20203;-66
2024/01/08 10:28:37;;;;;;;4.43;4.00;;;;;;;-144.30;100.00;86362.72;5093949;28;20222;-57
2024/01/08 10:31:05;;;;;;;4.80;4.20;;;;;;;-144.30;100.00;86330.88;5093981;28;20214;-57
2024/01/08 10:33:33;;;;;;;4.60;3.80;;;;;;;-144.30;100.00;86372.66;5093757;28;20203;-58
2024/01/08 10:36:02;;;;;;;4.93;4.00;;;;;;;-144.30;100.00;86350.78;5093912;28;20219;-57
2024/01/08 10:38:31;;;;;;;4.77;4.30;;;;;;;-144.30;100.00;86342.81;5093649;28;20204;-58
2024/01/08 10:41:00;;;;;;;5.57;4.63;;;;;;;-144.30;100.00;86330.88;5093775;28;20732;-59
2024/01/08 10:43:28;;;;;;;8.83;4.57;;;;;;;-144.30;100.00;86332.88;5093681;28;20674;-59
2024/01/08 10:45:58;;;;;;;5.83;5.20;;;;;;;-144.30;100.00;86328.91;5093759;28;20206;-59
2024/01/08 10:48:33;;;;;;;7.67;4.57;;;;;;;-144.30;100.00;86356.75;5093932;28;20667;-66
2024/01/08 10:51:03;;;;;;;5.43;4.20;;;;;;;-144.30;100.00;86374.63;5093678;28;20195;-58
2024/01/08 10:53:42;;;;;;;5.67;5.17;;;;;;;-144.30;100.00;86334.88;5093552;28;20195;-58
2024/01/08 10:56:13;;;;;;;5.90;4.20;;;;;;;-144.30;100.00;86305.03;5093360;28;20280;-58
2024/01/08 10:58:49;;;;;;;4.60;4.20;;;;;;;-144.30;100.00;86338.84;5093357;28;20196;-59
2024/01/08 11:01:17;;;;;;;5.90;4.40;;;;;;;-144.30;100.00;86313.00;5093347;28;20237;-65
2024/01/08 11:03:46;;;;;;;4.73;4.27;;;;;;;-144.30;100.00;86342.81;5093435;28;20202;-66
2024/01/08 11:06:13;;;;;;;4.00;3.70;;;;;;;-144.30;100.00;86370.66;5093244;28;20739;-58